Time;durP1;ratioP1;P1;durP2;ratioP2;P2;SDS_P1;SDS_P2;PMS_P1;PMS_P2;Temp;Humidity;BMP_temperature;BMP_pressure;BME280_temperature;BME280_humidity;BME280_pressure;Samples;Min_cycle;Max_cycle;Signal;HPM_P1;HPM_P2
2022/12/27 00:00:50;;;;;;;18.80;4.10;;;;;;;3.13;100.00;102000.19;5033937;28;20071;-72
2022/12/27 00:03:15;;;;;;;17.40;5.05;;;;;;;3.15;100.00;101985.22;5037486;28;20701;-73
2022/12/27 00:05:43;;;;;;;23.85;4.63;;;;;;;3.10;100.00;102003.72;5034939;28;20052;-72
2022/12/27 00:08:08;;;;;;;15.73;4.03;;;;;;;3.09;100.00;102002.00;5037494;28;20503;-72
2022/12/27 00:10:34;;;;;;;17.27;4.60;;;;;;;3.48;100.00;102010.22;5038894;28;20045;-72
2022/12/27 00:13:00;;;;;;;16.45;5.13;;;;;;;3.57;100.00;102010.09;5030353;28;20054;-73
2022/12/27 00:15:25;;;;;;;19.92;4.47;;;;;;;3.51;100.00;102011.03;5032974;28;20045;-72
2022/12/27 00:17:51;;;;;;;20.17;4.03;;;;;;;3.49;100.00;102017.25;5033231;28;20091;-72
2022/12/27 00:20:16;;;;;;;28.63;5.05;;;;;;;3.47;100.00;102004.09;5040319;28;20589;-72
2022/12/27 00:22:42;;;;;;;12.23;4.72;;;;;;;3.56;100.00;102018.88;5038415;28;20493;-72
2022/12/27 00:25:08;;;;;;;19.73;5.15;;;;;;;3.42;100.00;102016.47;5040176;28;20044;-74
2022/12/27 00:27:34;;;;;;;10.98;4.88;;;;;;;3.42;100.00;102013.84;5038534;28;20053;-72
2022/12/27 00:30:00;;;;;;;18.45;4.05;;;;;;;3.44;100.00;102019.06;5043879;28;20041;-72
2022/12/27 00:32:25;;;;;;;20.45;4.60;;;;;;;3.40;100.00;102014.72;5040907;28;20867;-72
2022/12/27 00:34:51;;;;;;;18.52;4.15;;;;;;;3.48;100.00;102010.22;5027004;28;20075;-72
2022/12/27 00:37:16;;;;;;;16.85;6.68;;;;;;;3.37;100.00;102016.53;5035661;28;20060;-72
2022/12/27 00:39:41;;;;;;;16.92;5.03;;;;;;;3.44;100.00;102019.06;5038084;28;20052;-73
2022/12/27 00:42:07;;;;;;;9.30;3.97;;;;;;;3.41;100.00;102019.97;5034826;28;20506;-72
2022/12/27 00:44:32;;;;;;;40.83;7.53;;;;;;;3.49;100.00;102019.88;5030645;28;20875;-72
2022/12/27 00:46:58;;;;;;;15.43;5.43;;;;;;;3.46;100.00;102027.81;5041727;28;20041;-72
2022/12/27 00:49:23;;;;;;;12.73;5.85;;;;;;;3.38;100.00;102030.59;5034300;28;20044;-73
2022/12/27 00:51:49;;;;;;;10.85;4.60;;;;;;;3.33;100.00;102035.06;5033086;28;20054;-72
2022/12/27 00:54:15;;;;;;;13.25;4.72;;;;;;;3.37;100.00;102029.72;5041500;28;20103;-72
2022/12/27 00:56:40;;;;;;;12.07;4.82;;;;;;;3.34;100.00;102029.75;5033690;28;20081;-72
2022/12/27 00:59:06;;;;;;;11.07;4.03;;;;;;;3.46;100.00;102027.81;5042228;28;20041;-72
2022/12/27 01:01:35;;;;;;;18.83;5.20;;;;;;;3.31;100.00;102027.19;5034885;28;20402;-72
2022/12/27 01:04:01;;;;;;;24.52;4.65;;;;;;;3.35;100.00;102030.63;5036246;28;20053;-72
2022/12/27 01:06:30;;;;;;;17.42;4.80;;;;;;;3.39;100.00;102037.59;5043534;28;20119;-72
2022/12/27 01:08:57;;;;;;;14.27;4.45;;;;;;;3.36;100.00;102043.81;5040561;28;20501;-72
2022/12/27 01:11:25;;;;;;;11.65;5.10;;;;;;;3.37;100.00;102049.94;5035001;28;20049;-73
2022/12/27 01:13:52;;;;;;;20.83;4.90;;;;;;;3.45;100.00;102053.31;5037113;28;20148;-72
2022/12/27 01:16:21;;;;;;;14.57;4.68;;;;;;;3.45;100.00;102053.31;5040222;28;20052;-72
2022/12/27 01:18:47;;;;;;;13.73;4.93;;;;;;;3.35;100.00;102055.22;5037790;28;20064;-72
2022/12/27 01:21:15;;;;;;;17.38;6.55;;;;;;;3.37;100.00;102058.72;5025091;28;20108;-73
2022/12/27 01:23:40;;;;;;;12.52;6.28;;;;;;;3.18;100.00;102059.00;5030635;28;20046;-72
2022/12/27 01:26:10;;;;;;;17.08;5.43;;;;;;;3.05;100.00;102059.13;5035858;28;20787;-73
2022/12/27 01:28:36;;;;;;;15.18;5.88;;;;;;;3.00;100.00;102060.06;5030220;28;20053;-73
2022/12/27 01:31:06;;;;;;;17.48;5.25;;;;;;;3.00;100.00;102062.72;5039109;28;20053;-72
2022/12/27 01:33:32;;;;;;;14.63;5.00;;;;;;;2.99;100.00;102068.88;5027196;28;20037;-72
2022/12/27 01:36:07;;;;;;;16.85;5.38;;;;;;;2.92;100.00;102073.38;5041700;28;20567;-72
2022/12/27 01:38:32;;;;;;;19.00;6.05;;;;;;;2.95;100.00;102078.56;5040758;28;20158;-72
2022/12/27 01:40:57;;;;;;;19.52;5.63;;;;;;;2.87;100.00;102084.84;5037865;28;20041;-72
2022/12/27 01:43:36;;;;;;;19.38;5.97;;;;;;;2.88;100.00;102105.03;5038457;28;20049;-72
2022/12/27 01:46:02;;;;;;;14.25;5.68;;;;;;;2.92;100.00;102102.34;5033219;28;20060;-72
2022/12/27 01:48:27;;;;;;;18.38;5.70;;;;;;;2.88;100.00;102090.09;5035390;28;20041;-72
2022/12/27 01:50:59;;;;;;;12.68;6.07;;;;;;;2.78;100.00;102096.34;5032242;28;20045;-72
2022/12/27 01:53:32;;;;;;;16.15;5.68;;;;;;;2.86;100.00;102094.47;5036680;28;20064;-72
2022/12/27 01:56:04;;;;;;;17.10;6.10;;;;;;;2.80;100.00;102098.06;5031513;28;20053;-70
2022/12/27 01:58:34;;;;;;;11.52;5.57;;;;;;;2.82;100.00;102103.34;5031876;28;20049;-73
2022/12/27 02:01:01;;;;;;;24.95;7.22;;;;;;;2.79;100.00;102106.84;5040618;28;20131;-71
2022/12/27 02:03:55;;;;;;;21.52;7.60;;;;;;;2.82;100.00;102100.69;5041740;28;20040;-71
2022/12/27 02:06:22;;;;;;;19.45;7.68;;;;;;;2.86;100.00;102091.84;5038589;28;20049;-71
2022/12/27 02:09:01;;;;;;;21.92;5.75;;;;;;;2.89;100.00;102090.97;5027490;28;20048;-71
2022/12/27 02:14:19;;;;;;;14.90;6.28;;;;;;;2.79;100.00;102104.22;5040550;28;20052;-72
2022/12/27 02:16:45;;;;;;;11.30;5.55;;;;;;;2.84;100.00;102115.59;5050956;28;20830;-71
2022/12/27 02:19:23;;;;;;;17.17;5.35;;;;;;;3.12;100.00;102115.28;5033166;28;20123;-71
2022/12/27 02:22:17;;;;;;;18.23;6.70;;;;;;;3.23;100.00;102125.69;5027859;28;20481;-72
2022/12/27 02:24:57;;;;;;;14.80;5.78;;;;;;;3.29;100.00;102121.19;5029003;28;20147;-72
2022/12/27 02:27:42;;;;;;;17.85;5.72;;;;;;;3.46;100.00;102126.25;5027586;28;20056;-72
2022/12/27 02:30:11;;;;;;;14.90;6.28;;;;;;;3.58;100.00;102141.94;5030593;28;20044;-72
2022/12/27 02:32:57;;;;;;;18.05;6.18;;;;;;;3.70;100.00;102140.88;5032593;28;20140;-73
2022/12/27 02:35:30;;;;;;;15.88;5.80;;;;;;;3.76;100.00;102168.94;5027594;28;20053;-72
2022/12/27 02:38:02;;;;;;;21.95;6.50;;;;;;;3.70;100.00;102196.25;5021579;28;20049;-72
2022/12/27 02:55:40;;;;;;;18.98;5.78;;;;;;;3.71;100.00;102153.16;4988172;28;20076;-73
2022/12/27 02:58:26;;;;;;;19.38;7.78;;;;;;;3.82;100.00;102138.06;4993968;28;20056;-73
2022/12/27 03:04:16;;;;;;;18.70;7.53;;;;;;;3.10;100.00;102148.66;4992633;28;20065;-71
2022/12/27 03:07:12;;;;;;;25.15;6.57;;;;;;;2.95;100.00;102152.34;4991638;28;20058;-73
2022/12/27 03:16:02;;;;;;;21.30;6.47;;;;;;;2.58;100.00;102159.75;4993265;28;20124;-73
2022/12/27 03:18:46;;;;;;;23.63;7.35;;;;;;;2.79;100.00;102156.91;4987447;28;20694;-73
2022/12/27 03:25:26;;;;;;;21.88;6.35;;;;;;;2.93;100.00;102156.78;5044559;28;20170;-73
2022/12/27 03:27:03;;;;;;;20.90;6.20;;;;;;;2.90;100.00;102154.16;5035354;28;20053;-73
2022/12/27 03:35:11;;;;;;;12.52;5.47;;;;;;;2.78;100.00;102168.34;5039966;28;20096;-72
2022/12/27 03:43:29;;;;;;;12.15;5.40;;;;;;;2.79;100.00;102170.06;5047017;28;20494;-72
2022/12/27 03:49:22;;;;;;;18.45;5.35;;;;;;;2.68;100.00;102176.34;5030823;28;20057;-72
2022/12/27 03:51:58;;;;;;;13.07;6.10;;;;;;;2.72;100.00;102175.44;5026447;28;20133;-72
2022/12/27 03:54:29;;;;;;;20.73;6.90;;;;;;;2.73;100.00;102170.13;5031942;28;20053;-73
2022/12/27 03:57:07;;;;;;;21.55;7.70;;;;;;;2.66;100.00;102157.94;5035453;28;20042;-72
2022/12/27 03:59:33;;;;;;;19.33;6.50;;;;;;;2.78;100.00;102168.34;5036263;28;20855;-72
2022/12/27 04:01:59;;;;;;;17.20;7.10;;;;;;;2.87;100.00;102170.00;5033804;28;20117;-72
2022/12/27 04:04:25;;;;;;;16.23;7.05;;;;;;;2.94;100.00;102170.81;5028560;28;20554;-72
2022/12/27 04:06:50;;;;;;;15.45;8.32;;;;;;;2.98;100.00;102173.41;5034321;28;20049;-73
2022/12/27 04:36:38;;;;;;;20.17;7.57;;;;;;;2.69;100.00;102191.25;5039019;28;20079;-71
2022/12/27 04:39:03;;;;;;;20.48;7.28;;;;;;;2.60;100.00;102189.56;5028327;28;20142;-71
2022/12/27 04:55:16;;;;;;;17.10;7.22;;;;;;;2.64;100.00;102199.19;5039648;28;20460;-71
2022/12/27 04:57:42;;;;;;;24.70;7.60;;;;;;;2.59;100.00;102193.94;5038468;28;20490;-71
2022/12/27 05:02:52;;;;;;;17.77;6.55;;;;;;;2.65;100.00;102198.28;5033067;28;20060;-74
2022/12/27 05:05:18;;;;;;;17.23;7.13;;;;;;;2.59;100.00;102201.84;5040200;28;20033;-71
2022/12/27 05:15:57;;;;;;;24.60;7.57;;;;;;;2.70;100.00;102209.66;5036282;28;20501;-73
2022/12/27 05:18:22;;;;;;;22.75;6.50;;;;;;;2.63;100.00;102212.38;5036693;28;20049;-71
2022/12/27 05:20:48;;;;;;;20.20;6.55;;;;;;;2.72;100.00;102218.44;5030304;28;20046;-71
2022/12/27 05:26:06;;;;;;;23.80;7.43;;;;;;;2.76;100.00;102224.53;5020989;28;20063;-71
2022/12/27 05:28:31;;;;;;;21.58;6.25;;;;;;;2.84;100.00;102220.94;5038270;28;20053;-71
2022/12/27 05:31:03;;;;;;;22.23;6.75;;;;;;;2.82;100.00;102227.13;5043303;28;20049;-73
2022/12/27 05:33:33;;;;;;;20.08;6.10;;;;;;;2.78;100.00;102228.03;5046892;28;20092;-71
2022/12/27 05:35:59;;;;;;;28.73;6.78;;;;;;;2.84;100.00;102226.22;5035821;28;20045;-71
2022/12/27 05:38:24;;;;;;;20.85;6.50;;;;;;;2.86;100.00;102226.19;5041663;28;20611;-71
2022/12/27 05:40:50;;;;;;;15.52;6.22;;;;;;;2.83;100.00;102236.78;5041236;28;20855;-71
2022/12/27 05:43:15;;;;;;;29.65;6.32;;;;;;;2.92;100.00;102235.81;5036009;28;20061;-71
2022/12/27 05:45:41;;;;;;;16.60;5.60;;;;;;;2.81;100.00;102231.53;5032651;28;20040;-71
2022/12/27 05:48:06;;;;;;;17.63;6.70;;;;;;;2.89;100.00;102233.22;5040590;28;20057;-71
2022/12/27 05:50:32;;;;;;;22.17;6.95;;;;;;;2.84;100.00;102238.50;5035104;28;20048;-71
2022/12/27 05:53:09;;;;;;;14.82;5.68;;;;;;;2.95;100.00;102235.78;5032086;28;20119;-73
2022/12/27 05:55:34;;;;;;;16.77;6.75;;;;;;;2.89;100.00;102235.84;5040214;28;20105;-70
2022/12/27 05:57:59;;;;;;;19.40;7.07;;;;;;;2.84;100.00;102231.47;5039568;28;20810;-71
2022/12/27 06:00:25;;;;;;;23.73;5.93;;;;;;;2.82;100.00;102243.81;5035900;28;20045;-72
2022/12/27 06:02:50;;;;;;;28.15;7.13;;;;;;;2.83;100.00;102240.28;5036273;28;20049;-71
2022/12/27 06:05:16;;;;;;;19.05;7.47;;;;;;;2.79;100.00;102241.19;5040353;28;20100;-71
2022/12/27 06:07:41;;;;;;;24.95;7.20;;;;;;;2.84;100.00;102236.75;5038403;28;20182;-71
2022/12/27 06:10:08;;;;;;;21.98;6.90;;;;;;;2.88;100.00;102250.78;5029103;28;20067;-72
2022/12/27 06:12:34;;;;;;;20.08;5.55;;;;;;;2.98;100.00;102251.56;5040248;28;20095;-71
2022/12/27 06:14:59;;;;;;;15.85;6.03;;;;;;;2.94;100.00;102250.72;5043979;28;20561;-71
2022/12/27 06:17:24;;;;;;;17.13;4.90;;;;;;;2.91;100.00;102255.13;5038647;28;20056;-72
2022/12/27 06:19:50;;;;;;;23.92;6.00;;;;;;;2.96;100.00;102258.59;5032665;28;20056;-71
2022/12/27 06:22:15;;;;;;;20.77;6.57;;;;;;;2.91;100.00;102257.75;5031885;28;20052;-73
2022/12/27 06:24:41;;;;;;;18.67;6.10;;;;;;;2.88;100.00;102265.72;5031014;28;20041;-71
2022/12/27 06:27:06;;;;;;;13.45;5.97;;;;;;;2.84;100.00;102270.13;5029817;28;20778;-71
2022/12/27 06:29:33;;;;;;;21.92;5.63;;;;;;;2.92;100.00;102262.16;5026270;28;20046;-71
2022/12/27 06:32:00;;;;;;;13.07;5.18;;;;;;;2.87;100.00;102263.97;5035851;28;20041;-71
2022/12/27 06:34:25;;;;;;;12.25;5.65;;;;;;;2.93;100.00;102261.28;5034851;28;20056;-71
2022/12/27 06:36:51;;;;;;;21.42;5.90;;;;;;;2.89;100.00;102260.41;5039931;28;20586;-70
2022/12/27 06:39:17;;;;;;;18.95;5.50;;;;;;;3.05;100.00;102262.03;5024560;28;20045;-71
2022/12/27 06:41:43;;;;;;;22.48;4.57;;;;;;;2.90;100.00;102272.69;5029158;28;20240;-71
2022/12/27 06:44:08;;;;;;;16.05;6.00;;;;;;;2.89;100.00;102264.81;5034348;28;20502;-70
2022/12/27 06:46:34;;;;;;;13.82;5.72;;;;;;;2.85;100.00;102270.09;5027042;28;20033;-73
2022/12/27 06:48:59;;;;;;;16.67;6.78;;;;;;;2.87;100.00;102271.88;5026629;28;20294;-72
2022/12/27 06:51:25;;;;;;;27.38;6.10;;;;;;;2.86;100.00;102268.34;5034841;28;20056;-73
2022/12/27 06:53:50;;;;;;;17.00;5.82;;;;;;;2.81;100.00;102271.03;5034234;28;20057;-72
2022/12/27 06:56:18;;;;;;;13.38;5.60;;;;;;;2.80;100.00;102271.03;5036279;28;20064;-72
2022/12/27 06:58:45;;;;;;;14.98;5.80;;;;;;;2.74;100.00;102277.22;5032678;28;20041;-72
2022/12/27 07:01:14;;;;;;;14.50;4.93;;;;;;;2.76;100.00;102283.38;5038920;28;20052;-72
2022/12/27 07:03:40;;;;;;;17.08;5.55;;;;;;;2.72;100.00;102280.78;5034284;28;20087;-71
2022/12/27 07:06:10;;;;;;;11.75;5.47;;;;;;;2.64;100.00;102291.34;5033267;28;20037;-71
2022/12/27 07:08:36;;;;;;;24.30;5.70;;;;;;;2.66;100.00;102297.50;5030752;28;20049;-71
2022/12/27 07:11:05;;;;;;;19.50;5.60;;;;;;;2.68;100.00;102298.34;5033398;28;20049;-73
2022/12/27 07:13:38;;;;;;;17.10;5.82;;;;;;;2.60;100.00;102305.41;5038506;28;20052;-71
2022/12/27 07:16:05;;;;;;;26.05;6.93;;;;;;;2.62;100.00;102311.56;5033122;28;20037;-73
2022/12/27 07:18:31;;;;;;;22.25;5.05;;;;;;;2.54;100.00;102310.72;5028469;28;20080;-71
2022/12/27 07:20:57;;;;;;;18.85;5.10;;;;;;;2.49;100.00;102315.16;5035186;28;20796;-75
2022/12/27 07:23:22;;;;;;;22.65;6.07;;;;;;;2.49;100.00;102321.28;5035589;28;20860;-73
2022/12/27 07:25:47;;;;;;;13.90;6.00;;;;;;;2.57;100.00;102326.53;5027422;28;20041;-72
2022/12/27 07:28:13;;;;;;;18.48;6.40;;;;;;;2.58;100.00;102329.13;5040231;28;20056;-71
2022/12/27 07:30:40;;;;;;;17.75;5.55;;;;;;;2.51;100.00;102332.69;5037302;28;20048;-71
2022/12/27 07:33:06;;;;;;;22.70;5.75;;;;;;;2.41;100.00;102330.09;5038816;28;20060;-71
2022/12/27 07:35:32;;;;;;;13.90;5.68;;;;;;;2.38;100.00;102335.41;5035209;28;20041;-71
2022/12/27 07:37:58;;;;;;;20.73;5.72;;;;;;;2.42;100.00;102334.50;5033884;28;20041;-71
2022/12/27 07:40:24;;;;;;;28.48;6.43;;;;;;;2.39;100.00;102338.00;5034590;28;20049;-71
2022/12/27 07:42:49;;;;;;;34.33;7.10;;;;;;;2.22;100.00;102343.38;5035926;28;20037;-71
2022/12/27 07:45:16;;;;;;;25.85;5.72;;;;;;;2.15;100.00;102340.75;5033488;28;20060;-71
2022/12/27 07:47:42;;;;;;;19.83;6.07;;;;;;;2.11;100.00;102342.56;5037178;28;20048;-71
2022/12/27 07:50:08;;;;;;;22.77;6.70;;;;;;;2.07;100.00;102346.94;5037585;28;20079;-71
2022/12/27 07:52:33;;;;;;;27.00;6.85;;;;;;;2.17;100.00;102349.53;5035837;28;20049;-71
2022/12/27 07:54:58;;;;;;;16.42;6.10;;;;;;;2.19;100.00;102348.63;5038354;28;20052;-72
2022/12/27 07:57:27;;;;;;;19.40;6.45;;;;;;;2.10;100.00;102356.56;5032957;28;20063;-71
2022/12/27 07:59:52;;;;;;;17.75;7.32;;;;;;;2.06;100.00;102360.13;5037617;28;20037;-71
2022/12/27 08:02:18;;;;;;;22.77;7.20;;;;;;;2.06;100.00;102370.63;5036865;28;20521;-71
2022/12/27 08:04:43;;;;;;;19.05;7.28;;;;;;;2.04;100.00;102361.84;5036271;28;20908;-71
2022/12/27 08:07:16;;;;;;;29.15;7.93;;;;;;;1.88;100.00;102368.94;5035351;28;20499;-71
2022/12/27 08:09:44;;;;;;;23.13;8.55;;;;;;;1.87;100.00;102376.84;5033608;28;22407;-71
2022/12/27 08:12:12;;;;;;;33.00;8.45;;;;;;;1.89;100.00;102383.81;5034725;28;20079;-72
2022/12/27 08:14:38;;;;;;;25.98;9.43;;;;;;;1.89;100.00;102389.09;5029004;28;20056;-72
2022/12/27 08:17:26;;;;;;;22.15;8.45;;;;;;;2.07;100.00;102402.19;5032329;28;20110;-72
2022/12/27 08:19:53;;;;;;;22.23;8.73;;;;;;;2.07;100.00;102396.06;5033090;28;20626;-71
2022/12/27 08:22:19;;;;;;;26.73;9.40;;;;;;;2.00;100.00;102394.31;5032525;28;20052;-72
2022/12/27 08:24:44;;;;;;;23.83;9.70;;;;;;;2.16;100.00;102397.75;5034313;28;20053;-71
2022/12/27 08:27:11;;;;;;;21.75;8.85;;;;;;;2.19;100.00;102385.47;5039259;28;20460;-71
2022/12/27 08:29:36;;;;;;;28.10;9.90;;;;;;;2.18;100.00;102389.00;5031029;28;20051;-71
2022/12/27 08:32:02;;;;;;;26.80;9.25;;;;;;;2.27;100.00;102386.34;5033305;28;20045;-71
2022/12/27 08:34:28;;;;;;;23.77;10.88;;;;;;;2.31;100.00;102387.22;5025663;28;20300;-71
2022/12/27 08:36:53;;;;;;;34.55;9.85;;;;;;;2.33;100.00;102388.06;5036647;28;20052;-71
2022/12/27 08:39:19;;;;;;;28.50;11.60;;;;;;;2.44;100.00;102383.63;5031762;28;20457;-71
2022/12/27 08:41:45;;;;;;;31.10;11.15;;;;;;;2.48;100.00;102382.72;5029771;28;20057;-71
2022/12/27 08:44:10;;;;;;;33.58;12.13;;;;;;;2.56;100.00;102394.09;5035597;28;20041;-71
2022/12/27 08:46:36;;;;;;;27.55;12.15;;;;;;;2.62;100.00;102381.78;5037071;28;20591;-74
2022/12/27 08:49:03;;;;;;;31.20;13.10;;;;;;;2.64;100.00;102388.78;5037626;28;20767;-74
2022/12/27 08:51:29;;;;;;;31.63;14.15;;;;;;;2.71;100.00;102395.78;5035555;28;20045;-71
2022/12/27 08:53:54;;;;;;;38.17;15.07;;;;;;;2.82;100.00;102399.22;5038942;28;20414;-73
2022/12/27 08:56:20;;;;;;;36.00;15.30;;;;;;;2.91;100.00;102387.72;5039712;28;20053;-73
2022/12/27 08:58:48;;;;;;;38.90;16.95;;;;;;;2.95;100.00;102393.84;5039006;28;20045;-75
2022/12/27 09:01:13;;;;;;;37.15;16.48;;;;;;;2.95;100.00;102394.72;5039374;28;20040;-73
2022/12/27 09:03:39;;;;;;;44.30;19.52;;;;;;;2.97;100.00;102397.38;5040636;28;20052;-73
2022/12/27 09:06:14;;;;;;;39.17;17.42;;;;;;;2.97;100.00;102387.72;5040101;28;20409;-73
2022/12/27 09:08:40;;;;;;;47.28;18.35;;;;;;;2.99;100.00;102385.91;5040288;28;20148;-71
2022/12/27 09:11:20;;;;;;;46.95;17.10;;;;;;;3.12;100.00;102392.00;5042108;28;20045;-73
2022/12/27 09:13:46;;;;;;;41.72;16.52;;;;;;;3.13;100.00;102392.88;5033719;28;20124;-71
2022/12/27 09:16:18;;;;;;;44.63;15.32;;;;;;;3.11;100.00;102390.22;5032031;28;20033;-71
2022/12/27 09:18:47;;;;;;;37.70;15.73;;;;;;;3.18;100.00;102391.06;5038846;28;20049;-73
2022/12/27 09:21:13;;;;;;;33.20;15.32;;;;;;;3.11;100.00;102387.59;5030820;28;20042;-72
2022/12/27 09:23:40;;;;;;;34.45;13.95;;;;;;;3.24;100.00;102391.88;5038406;28;20127;-73
2022/12/27 09:26:07;;;;;;;34.65;14.50;;;;;;;3.17;100.00;102389.31;5028848;28;20081;-74
2022/12/27 09:28:34;;;;;;;39.53;13.55;;;;;;;3.18;100.00;102394.56;5041592;28;20343;-73
2022/12/27 09:31:00;;;;;;;29.08;12.93;;;;;;;3.26;100.00;102392.78;5038148;28;20057;-73
2022/12/27 09:33:26;;;;;;;42.22;15.05;;;;;;;3.25;100.00;102398.91;5035096;28;20051;-72
2022/12/27 09:35:52;;;;;;;44.47;14.55;;;;;;;4.10;100.00;102397.19;5030779;28;20616;-72
2022/12/27 09:38:17;;;;;;;37.05;14.77;;;;;;;3.76;100.00;102387.88;5027306;28;20050;-71
2022/12/27 09:40:54;;;;;;;35.55;13.75;;;;;;;3.79;100.00;102394.03;5032015;28;20611;-73
2022/12/27 09:43:23;;;;;;;41.30;14.30;;;;;;;4.93;100.00;102399.63;5040354;28;20048;-71
2022/12/27 09:45:52;;;;;;;33.58;15.27;;;;;;;5.16;100.00;102395.75;5036665;28;20480;-74
2022/12/27 09:48:29;;;;;;;37.25;14.60;;;;;;;5.28;100.00;102400.84;5037042;28;20146;-71
2022/12/27 09:51:02;;;;;;;33.42;15.15;;;;;;;5.37;100.00;102395.41;5040144;28;20049;-71
2022/12/27 09:53:40;;;;;;;34.53;14.02;;;;;;;4.94;100.00;102405.78;5041402;28;20041;-74
2022/12/27 09:56:07;;;;;;;36.80;14.80;;;;;;;4.34;100.00;102406.59;5036360;28;20041;-73
2022/12/27 09:58:39;;;;;;;36.05;14.93;;;;;;;4.72;100.00;102404.34;5040267;28;20098;-71
2022/12/27 10:01:27;;;;;;;33.97;14.13;;;;;;;4.98;100.00;102415.44;5035560;28;20481;-73
2022/12/27 10:03:53;;;;;;;41.85;15.48;;;;;;;5.08;100.00;102403.81;5044512;28;20065;-73
2022/12/27 10:06:39;;;;;;;34.95;13.82;;;;;;;5.03;100.00;102410.06;5037459;28;20091;-73
2022/12/27 10:09:24;;;;;;;34.28;11.27;;;;;;;5.00;100.00;102405.69;5040161;28;20053;-73
2022/12/27 10:12:01;;;;;;;25.80;11.55;;;;;;;5.06;100.00;102402.06;5038126;28;20041;-74
2022/12/27 10:14:45;;;;;;;25.58;11.43;;;;;;;5.19;100.00;102404.50;5035159;28;20158;-73
2022/12/27 10:17:39;;;;;;;25.33;11.68;;;;;;;4.39;100.00;102404.78;5039489;28;20055;-73
2022/12/27 10:20:17;;;;;;;27.10;11.63;;;;;;;4.88;100.00;102411.16;5016380;28;20064;-73
2022/12/27 10:22:50;;;;;;;28.27;11.43;;;;;;;4.76;100.00;102409.56;5040260;28;20157;-72
2022/12/27 10:25:19;;;;;;;29.45;13.63;;;;;;;5.03;100.00;102418.00;5036199;28;20104;-73
2022/12/27 10:27:46;;;;;;;33.10;13.70;;;;;;;5.19;100.00;102419.50;5038555;28;20144;-73
2022/12/27 10:30:19;;;;;;;33.17;12.73;;;;;;;5.28;100.00;102413.22;5034032;28;20065;-73
2022/12/27 10:32:45;;;;;;;32.45;13.95;;;;;;;5.33;100.00;102409.59;5039903;28;20152;-73
2022/12/27 10:35:16;;;;;;;27.98;12.75;;;;;;;5.40;100.00;102408.56;5039742;28;20048;-73
2022/12/27 10:37:43;;;;;;;23.65;12.32;;;;;;;5.45;100.00;102409.38;5039960;28;20684;-73
2022/12/27 10:40:19;;;;;;;26.83;11.93;;;;;;;5.45;100.00;102404.09;5037053;28;20446;-73
2022/12/27 10:42:58;;;;;;;31.27;11.55;;;;;;;5.46;100.00;102403.19;5029086;28;20049;-73
2022/12/27 10:45:29;;;;;;;27.52;11.60;;;;;;;5.33;100.00;102403.44;5030371;28;20147;-73
2022/12/27 10:47:58;;;;;;;29.90;12.55;;;;;;;5.53;100.00;102396.03;5037792;28;20092;-73
2022/12/27 10:50:27;;;;;;;35.38;11.80;;;;;;;5.58;100.00;102391.53;5029767;28;20083;-71
2022/12/27 10:52:53;;;;;;;31.15;14.02;;;;;;;5.81;100.00;102383.16;5045214;28;20046;-71
2022/12/27 10:55:36;;;;;;;39.28;14.15;;;;;;;5.83;100.00;102393.72;5034559;28;20515;-71
2022/12/27 10:58:36;;;;;;;26.02;12.63;;;;;;;5.93;100.00;102395.34;5026103;28;20618;-72
2022/12/27 11:01:02;;;;;;;34.88;13.10;;;;;;;5.96;100.00;102393.47;5020622;28;20049;-72
2022/12/27 11:03:28;;;;;;;30.20;11.70;;;;;;;5.95;100.00;102383.81;5031198;28;20056;-70
2022/12/27 11:06:02;;;;;;;27.15;10.45;;;;;;;5.92;100.00;102390.91;5029265;28;20056;-72
2022/12/27 11:08:29;;;;;;;28.08;12.27;;;;;;;6.10;100.00;102389.69;5027136;28;20130;-72
2022/12/27 11:11:16;;;;;;;22.70;11.00;;;;;;;5.95;100.00;102381.16;5028617;28;20045;-72
2022/12/27 11:13:42;;;;;;;20.33;9.65;;;;;;;5.87;100.00;102390.09;5030596;28;20134;-72
2022/12/27 11:16:34;;;;;;;24.80;10.38;;;;;;;6.22;100.00;102379.75;5035281;28;20476;-74
2022/12/27 11:19:02;;;;;;;32.30;11.07;;;;;;;6.25;100.00;102388.53;5027343;28;20064;-73
2022/12/27 11:21:29;;;;;;;31.17;9.73;;;;;;;6.21;100.00;102385.94;5028165;28;20045;-74
2022/12/27 11:23:59;;;;;;;31.20;9.85;;;;;;;6.27;100.00;102395.53;5033890;28;20052;-73
2022/12/27 11:26:28;;;;;;;27.30;9.65;;;;;;;6.34;100.00;102394.50;5031747;28;20052;-73
2022/12/27 11:28:57;;;;;;;18.90;7.93;;;;;;;6.29;100.00;102390.22;5035776;28;20049;-73
2022/12/27 11:31:39;;;;;;;20.42;8.38;;;;;;;6.43;100.00;102389.03;5028582;28;20049;-72
2022/12/27 11:34:17;;;;;;;22.42;8.10;;;;;;;6.33;100.00;102394.56;5042221;28;20063;-73
2022/12/27 11:36:46;;;;;;;14.25;6.32;;;;;;;6.59;100.00;102386.03;5034997;28;20072;-73
2022/12/27 11:39:36;;;;;;;18.35;6.07;;;;;;;6.46;100.00;102386.28;5029217;28;20052;-74
2022/12/27 11:42:07;;;;;;;16.60;5.45;;;;;;;6.58;100.00;102377.22;5019441;28;20152;-72
2022/12/27 11:44:39;;;;;;;16.20;5.88;;;;;;;6.55;100.00;102373.75;5033313;28;20048;-72
2022/12/27 11:47:17;;;;;;;20.35;6.90;;;;;;;6.62;100.00;102376.22;5031445;28;20045;-72
2022/12/27 11:49:54;;;;;;;13.85;5.35;;;;;;;6.54;100.00;102367.59;5029417;28;20099;-73
2022/12/27 11:52:45;;;;;;;12.45;5.15;;;;;;;6.72;100.00;102360.97;5037273;28;20057;-72
2022/12/27 11:55:43;;;;;;;17.25;5.78;;;;;;;6.84;100.00;102357.19;5033012;28;20053;-73
2022/12/27 11:58:27;;;;;;;18.00;5.80;;;;;;;6.91;100.00;102353.47;5030121;28;20056;-71
2022/12/27 12:01:14;;;;;;;10.20;4.97;;;;;;;7.04;100.00;102346.13;5037474;28;20108;-71
2022/12/27 12:03:51;;;;;;;13.80;4.90;;;;;;;7.07;100.00;102340.72;5032148;28;20052;-71
2022/12/27 12:06:47;;;;;;;19.15;4.60;;;;;;;7.25;100.00;102351.75;5029063;28;20864;-71
2022/12/27 12:09:46;;;;;;;14.20;5.90;;;;;;;7.19;100.00;102345.75;5032181;28;20049;-72
2022/12/27 12:12:40;;;;;;;17.13;5.53;;;;;;;7.22;100.00;102341.19;5018346;28;20053;-72
2022/12/27 12:15:18;;;;;;;16.33;6.07;;;;;;;7.36;100.00;102337.34;5031808;28;20056;-71
2022/12/27 12:18:09;;;;;;;21.60;6.30;;;;;;;7.40;100.00;102339.88;5030155;28;20045;-71
2022/12/27 12:20:42;;;;;;;20.10;6.03;;;;;;;7.30;100.00;102330.41;5030843;28;20060;-70
2022/12/27 12:23:11;;;;;;;;;;;;;;;7.43;100.00;102329.19;5029524;28;20052;-71
2022/12/27 12:26:04;;;;;;;18.73;5.45;;;;;;;7.45;100.00;102322.03;5033180;28;20009;-74
2022/12/27 12:28:47;;;;;;;17.13;5.05;;;;;;;7.48;100.00;102321.97;5030489;28;20509;-73
2022/12/27 12:31:37;;;;;;;20.20;5.45;;;;;;;7.63;100.00;102325.09;5033416;28;20060;-73
2022/12/27 12:34:13;;;;;;;19.67;4.72;;;;;;;7.65;100.00;102324.16;5036000;28;20049;-73
2022/12/27 12:36:48;;;;;;;17.35;4.75;;;;;;;7.68;100.00;102324.09;5040104;28;20037;-71
2022/12/27 12:39:36;;;;;;;11.13;4.25;;;;;;;7.94;100.00;102320.69;5036105;28;20102;-73
2022/12/27 12:42:19;;;;;;;13.85;4.57;;;;;;;7.84;100.00;102321.88;5034507;28;21794;-73
2022/12/27 12:44:59;;;;;;;15.70;4.80;;;;;;;7.94;100.00;102322.50;5037755;28;20556;-73
2022/12/27 12:48:03;;;;;;;12.50;4.10;;;;;;;7.94;100.00;102314.53;5039928;28;20575;-73
2022/12/27 12:51:00;;;;;;;12.88;5.15;;;;;;;7.99;100.00;102313.47;4982747;28;20060;-73
2022/12/27 12:53:48;;;;;;;16.05;4.75;;;;;;;7.99;100.00;102305.50;4996784;28;20656;-72
2022/12/27 12:56:31;;;;;;;14.77;4.65;;;;;;;8.10;100.00;102306.97;4991022;28;20058;-73
2022/12/27 12:59:22;;;;;;;15.30;4.93;;;;;;;7.80;100.00;102304.28;4995510;28;20054;-73
2022/12/27 13:01:58;;;;;;;9.40;4.43;;;;;;;8.03;100.00;102296.53;4986763;28;20049;-72
2022/12/27 13:04:48;;;;;;;10.90;4.90;;;;;;;7.82;100.00;102294.47;4994963;28;20058;-73
2022/12/27 13:07:14;;;;;;;14.00;5.82;;;;;;;7.75;100.00;102287.59;4995814;28;20050;-73
2022/12/27 13:10:07;;;;;;;11.80;4.75;;;;;;;7.73;100.00;102289.41;4992933;28;20116;-71
2022/12/27 13:12:49;;;;;;;16.08;4.70;;;;;;;7.80;100.00;102293.66;4986768;28;20065;-73
2022/12/27 13:15:31;;;;;;;12.93;4.28;;;;;;;7.64;100.00;102282.59;4997231;28;20085;-73